Time;durP1;ratioP1;P1;durP2;ratioP2;P2;SDS_P1;SDS_P2;PMS_P1;PMS_P2;Temp;Humidity;BMP_temperature;BMP_pressure;BME280_temperature;BME280_humidity;BME280_pressure;Samples;Min_cycle;Max_cycle;Signal;HPM_P1;HPM_P2
2024/01/26 00:02:01;;;;;;;99.85;34.35;;;;;;;;;;5065540;28;20106;-81
2024/01/26 00:04:27;;;;;;;92.13;33.40;;;;;;;;;;5064731;28;20076;-81
2024/01/26 00:06:53;;;;;;;83.57;31.80;;;;;;;;;;5064227;28;20056;-81
2024/01/26 00:09:20;;;;;;;113.72;35.50;;;;;;;;;;5064709;28;20092;-81
2024/01/26 00:11:46;;;;;;;105.57;35.65;;;;;;;;;;5056890;28;20056;-81
2024/01/26 00:14:12;;;;;;;84.38;33.65;;;;;;;;;;5064445;28;20045;-81
2024/01/26 00:16:38;;;;;;;105.90;35.90;;;;;;;;;;5063043;28;20045;-81
2024/01/26 00:19:05;;;;;;;91.30;34.67;;;;;;;;;;5056666;28;20044;-81
2024/01/26 00:21:31;;;;;;;105.45;37.38;;;;;;;;;;5057747;28;20041;-81
2024/01/26 00:23:57;;;;;;;94.05;35.92;;;;;;;;;;5059074;28;20049;-82
2024/01/26 00:26:23;;;;;;;113.45;37.60;;;;;;;;;;5059211;28;20052;-82
2024/01/26 00:28:49;;;;;;;124.75;38.47;;;;;;;;;;5059550;28;20045;-81
2024/01/26 00:31:16;;;;;;;107.05;36.03;;;;;;;;;;5060560;28;20120;-82
2024/01/26 00:33:42;;;;;;;96.60;35.03;;;;;;;;;;5060105;28;20040;-81
2024/01/26 00:36:08;;;;;;;86.25;33.20;;;;;;;;;;5060571;28;20098;-81
2024/01/26 00:38:34;;;;;;;96.72;36.55;;;;;;;;;;5053429;28;20186;-81
2024/01/26 00:41:00;;;;;;;88.47;34.45;;;;;;;;;;5060033;28;20067;-81
2024/01/26 00:43:26;;;;;;;94.22;34.92;;;;;;;;;;5057962;28;20044;-81
2024/01/26 00:45:53;;;;;;;104.75;35.72;;;;;;;;;;5060524;28;20033;-81
2024/01/26 00:48:19;;;;;;;88.25;35.50;;;;;;;;;;5060658;28;20103;-82
2024/01/26 00:50:46;;;;;;;81.82;34.80;;;;;;;;;;5051815;28;20076;-81
2024/01/26 00:53:12;;;;;;;89.00;34.38;;;;;;;;;;5055603;28;20053;-81
2024/01/26 00:55:38;;;;;;;92.45;35.55;;;;;;;;;;5061091;28;20082;-81
2024/01/26 00:58:05;;;;;;;94.65;35.30;;;;;;;;;;5062080;28;20060;-81
2024/01/26 01:00:31;;;;;;;91.95;34.95;;;;;;;;;;5063745;28;20049;-81
2024/01/26 01:02:57;;;;;;;90.53;34.85;;;;;;;;;;5066374;28;20055;-81
2024/01/26 01:05:23;;;;;;;76.30;32.10;;;;;;;;;;5064391;28;20052;-81
2024/01/26 01:07:49;;;;;;;84.10;34.45;;;;;;;;;;5061726;28;20060;-81
2024/01/26 01:10:15;;;;;;;100.18;36.83;;;;;;;;;;5059703;28;20410;-81
2024/01/26 01:12:44;;;;;;;92.53;34.47;;;;;;;;;;5062478;28;20171;-81
2024/01/26 01:15:11;;;;;;;81.72;33.58;;;;;;;;;;5061940;28;20045;-81
2024/01/26 01:17:42;;;;;;;80.22;34.17;;;;;;;;;;5061026;28;20045;-81
2024/01/26 01:20:09;;;;;;;73.85;32.38;;;;;;;;;;5063485;28;20075;-81
2024/01/26 01:22:38;;;;;;;69.75;32.13;;;;;;;;;;5062269;28;20405;-81
2024/01/26 01:25:08;;;;;;;83.30;35.10;;;;;;;;;;5051784;28;20057;-81
2024/01/26 01:27:36;;;;;;;73.40;32.80;;;;;;;;;;5057105;28;20053;-81
2024/01/26 01:30:03;;;;;;;84.22;35.10;;;;;;;;;;5062314;28;20049;-81
2024/01/26 01:32:30;;;;;;;79.15;34.22;;;;;;;;;;5061646;28;20057;-81
2024/01/26 01:34:56;;;;;;;73.43;33.70;;;;;;;;;;5062008;28;20041;-81
2024/01/26 01:37:22;;;;;;;76.00;32.65;;;;;;;;;;5058570;28;20056;-81
2024/01/26 01:39:48;;;;;;;71.82;32.50;;;;;;;;;;5050543;28;20049;-81
2024/01/26 01:42:14;;;;;;;76.57;32.55;;;;;;;;;;5061287;28;20486;-80
2024/01/26 01:44:41;;;;;;;72.20;33.13;;;;;;;;;;5061776;28;20048;-81
2024/01/26 01:47:09;;;;;;;77.25;34.45;;;;;;;;;;5061910;28;20045;-81
2024/01/26 01:49:36;;;;;;;81.40;35.35;;;;;;;;;;5054350;28;20124;-81
2024/01/26 01:52:04;;;;;;;71.18;33.88;;;;;;;;;;5049171;28;20176;-81
2024/01/26 01:54:31;;;;;;;78.95;34.03;;;;;;;;;;5041302;28;20449;-81
2024/01/26 01:56:58;;;;;;;76.40;35.00;;;;;;;;;;5061251;28;20410;-81
2024/01/26 01:59:24;;;;;;;70.13;33.35;;;;;;;;;;5059800;28;20560;-81
2024/01/26 02:01:50;;;;;;;70.22;35.20;;;;;;;;;;5058636;28;20425;-81
2024/01/26 02:04:16;;;;;;;74.45;35.28;;;;;;;;;;5055446;28;20045;-81
2024/01/26 02:06:53;;;;;;;76.25;36.17;;;;;;;;;;5055357;28;20041;-81
2024/01/26 02:09:19;;;;;;;73.18;35.50;;;;;;;;;;5054476;28;20049;-81
2024/01/26 02:11:45;;;;;;;65.30;32.13;;;;;;;;;;5054168;28;20053;-81
2024/01/26 02:14:11;;;;;;;66.03;34.15;;;;;;;;;;5055616;28;20111;-81
2024/01/26 02:16:37;;;;;;;72.07;34.75;;;;;;;;;;5055877;28;20052;-81
2024/01/26 02:19:03;;;;;;;77.28;35.70;;;;;;;;;;5056959;28;20037;-81
2024/01/26 02:21:29;;;;;;;70.95;34.10;;;;;;;;;;5056829;28;20041;-81
2024/01/26 02:23:55;;;;;;;67.03;33.70;;;;;;;;;;5056772;28;20052;-82
2024/01/26 02:26:21;;;;;;;66.97;33.28;;;;;;;;;;5057774;28;20049;-81
2024/01/26 02:28:47;;;;;;;66.25;33.08;;;;;;;;;;5057349;28;20040;-82
2024/01/26 02:31:13;;;;;;;58.97;31.95;;;;;;;;;;5058062;28;20049;-81
2024/01/26 02:33:39;;;;;;;62.42;32.15;;;;;;;;;;5057274;28;20509;-81
2024/01/26 02:36:06;;;;;;;62.55;31.83;;;;;;;;;;5058399;28;20131;-81
2024/01/26 02:38:32;;;;;;;59.97;31.23;;;;;;;;;;5058639;28;20080;-81
2024/01/26 02:40:58;;;;;;;57.67;31.10;;;;;;;;;;5057711;28;20045;-82
2024/01/26 02:43:24;;;;;;;60.42;31.70;;;;;;;;;;5043173;28;20131;-83
2024/01/26 02:45:50;;;;;;;54.20;31.23;;;;;;;;;;5058868;28;20064;-81
2024/01/26 02:48:16;;;;;;;59.10;30.83;;;;;;;;;;5058921;28;20041;-81
2024/01/26 02:50:42;;;;;;;55.63;31.40;;;;;;;;;;5059208;28;20037;-81
2024/01/26 02:53:08;;;;;;;50.95;29.40;;;;;;;;;;5058221;28;20037;-80
2024/01/26 02:55:34;;;;;;;51.25;30.00;;;;;;;;;;5060814;28;20118;-81
2024/01/26 02:58:00;;;;;;;53.65;29.75;;;;;;;;;;5061052;28;20053;-81
2024/01/26 03:00:26;;;;;;;53.03;31.30;;;;;;;;;;5059674;28;20045;-81
2024/01/26 03:02:52;;;;;;;46.50;28.42;;;;;;;;;;5059893;28;20052;-81
2024/01/26 03:05:18;;;;;;;45.67;28.23;;;;;;;;;;5059011;28;20134;-81
2024/01/26 03:07:44;;;;;;;44.83;28.08;;;;;;;;;;5058834;28;20053;-81
2024/01/26 03:10:10;;;;;;;43.83;28.23;;;;;;;;;;5057648;28;20124;-81
2024/01/26 03:12:37;;;;;;;44.20;28.15;;;;;;;;;;5056979;28;20052;-81
2024/01/26 03:15:03;;;;;;;41.38;26.77;;;;;;;;;;5058131;28;20049;-81
2024/01/26 03:17:29;;;;;;;43.97;27.33;;;;;;;;;;5058582;28;20041;-81
2024/01/26 03:19:55;;;;;;;46.72;28.05;;;;;;;;;;5040063;28;20077;-81
2024/01/26 03:22:21;;;;;;;39.40;26.60;;;;;;;;;;5056560;28;20044;-81
2024/01/26 03:24:47;;;;;;;42.72;27.13;;;;;;;;;;5058662;28;20041;-81
2024/01/26 03:27:14;;;;;;;42.05;28.42;;;;;;;;;;5058937;28;20045;-82
2024/01/26 03:29:40;;;;;;;44.67;29.05;;;;;;;;;;5063175;28;20097;-81
2024/01/26 03:32:06;;;;;;;43.80;27.92;;;;;;;;;;5063195;28;20077;-81
2024/01/26 03:34:33;;;;;;;44.47;27.50;;;;;;;;;;5079030;28;20132;-81
2024/01/26 03:36:59;;;;;;;40.08;27.05;;;;;;;;;;5065055;28;20041;-81
2024/01/26 03:39:25;;;;;;;41.42;27.33;;;;;;;;;;5062710;28;20053;-81
2024/01/26 03:41:51;;;;;;;43.42;27.40;;;;;;;;;;5051621;28;20050;-81
2024/01/26 03:44:17;;;;;;;45.60;28.38;;;;;;;;;;5044226;28;20483;-81
2024/01/26 03:46:43;;;;;;;41.67;27.35;;;;;;;;;;5063711;28;20037;-81
2024/01/26 03:49:09;;;;;;;40.10;26.80;;;;;;;;;;5063886;28;20048;-81
2024/01/26 03:51:39;;;;;;;40.85;27.65;;;;;;;;;;5062990;28;20048;-81
2024/01/26 03:54:05;;;;;;;39.03;26.27;;;;;;;;;;5063481;28;20551;-82
2024/01/26 03:56:31;;;;;;;44.28;27.38;;;;;;;;;;5063129;28;20087;-81
2024/01/26 03:58:57;;;;;;;44.05;27.20;;;;;;;;;;5062690;28;20390;-81
2024/01/26 04:01:23;;;;;;;42.80;27.20;;;;;;;;;;5062748;28;20052;-82
2024/01/26 04:03:49;;;;;;;42.75;27.00;;;;;;;;;;5063079;28;20045;-81
2024/01/26 04:06:15;;;;;;;41.40;26.85;;;;;;;;;;5063417;28;20386;-81
2024/01/26 04:08:41;;;;;;;39.00;26.33;;;;;;;;;;5053982;28;20045;-81
2024/01/26 04:11:07;;;;;;;41.67;28.17;;;;;;;;;;5063010;28;20052;-81
2024/01/26 04:13:33;;;;;;;45.38;27.90;;;;;;;;;;5056460;28;20041;-81
2024/01/26 04:15:59;;;;;;;43.78;28.02;;;;;;;;;;5046525;28;20938;-82
2024/01/26 04:18:25;;;;;;;44.00;26.70;;;;;;;;;;5063424;28;20041;-81
2024/01/26 04:20:51;;;;;;;41.33;27.13;;;;;;;;;;5062295;28;20041;-82
2024/01/26 04:23:18;;;;;;;42.22;26.10;;;;;;;;;;5059887;28;20052;-82
2024/01/26 04:25:44;;;;;;;39.85;25.70;;;;;;;;;;5062633;28;20045;-82
2024/01/26 04:28:10;;;;;;;44.85;28.75;;;;;;;;;;5062829;28;20394;-81
2024/01/26 04:30:36;;;;;;;42.75;26.92;;;;;;;;;;5061801;28;20529;-82
2024/01/26 04:33:02;;;;;;;41.65;27.50;;;;;;;;;;5060872;28;20388;-82
2024/01/26 04:35:28;;;;;;;44.38;27.58;;;;;;;;;;5044952;28;20052;-82
2024/01/26 04:37:54;;;;;;;41.80;26.60;;;;;;;;;;5057974;28;20048;-81
2024/01/26 04:40:21;;;;;;;40.22;26.00;;;;;;;;;;5061388;28;20045;-81
2024/01/26 04:42:47;;;;;;;41.00;26.08;;;;;;;;;;5061975;28;20132;-81
2024/01/26 04:45:13;;;;;;;40.88;26.05;;;;;;;;;;5062108;28;20045;-81
2024/01/26 04:47:39;;;;;;;38.30;26.25;;;;;;;;;;5050162;28;20123;-82
2024/01/26 04:50:06;;;;;;;39.45;24.90;;;;;;;;;;5062314;28;20041;-81
2024/01/26 04:52:32;;;;;;;39.50;24.90;;;;;;;;;;5064462;28;20037;-81
2024/01/26 04:54:58;;;;;;;39.20;24.88;;;;;;;;;;5064450;28;20048;-81
2024/01/26 04:57:24;;;;;;;38.85;25.30;;;;;;;;;;5062770;28;20056;-81
2024/01/26 04:59:50;;;;;;;34.40;24.65;;;;;;;;;;5055673;28;20067;-81
2024/01/26 05:02:16;;;;;;;37.17;23.85;;;;;;;;;;5063115;28;20033;-81
2024/01/26 05:04:42;;;;;;;37.92;26.30;;;;;;;;;;5043803;28;20124;-81
2024/01/26 05:07:08;;;;;;;35.97;25.20;;;;;;;;;;5053496;28;20059;-81
2024/01/26 05:09:34;;;;;;;39.08;25.77;;;;;;;;;;5063749;28;20053;-82
2024/01/26 05:12:00;;;;;;;39.28;25.40;;;;;;;;;;5060894;28;20049;-82
2024/01/26 05:14:26;;;;;;;38.10;27.52;;;;;;;;;;5063529;28;20501;-81
2024/01/26 05:16:53;;;;;;;36.67;25.67;;;;;;;;;;5063070;28;20086;-81
2024/01/26 05:19:19;;;;;;;40.28;26.15;;;;;;;;;;5063081;28;20045;-81
2024/01/26 05:21:45;;;;;;;41.72;27.50;;;;;;;;;;5061034;28;20045;-81
2024/01/26 05:24:11;;;;;;;43.00;28.23;;;;;;;;;;5061985;28;20045;-82
2024/01/26 05:26:38;;;;;;;41.25;27.45;;;;;;;;;;5061127;28;20052;-82
2024/01/26 05:29:06;;;;;;;39.78;27.50;;;;;;;;;;5061975;28;20118;-82
2024/01/26 05:31:33;;;;;;;37.38;25.88;;;;;;;;;;5061704;28;20051;-82
2024/01/26 05:33:59;;;;;;;39.15;26.63;;;;;;;;;;5044839;28;20053;-82
2024/01/26 05:36:25;;;;;;;38.35;27.52;;;;;;;;;;5059721;28;20064;-81
2024/01/26 05:38:51;;;;;;;36.95;26.88;;;;;;;;;;5062126;28;20045;-81
2024/01/26 05:41:17;;;;;;;36.33;26.80;;;;;;;;;;5062260;28;20045;-82
2024/01/26 05:43:46;;;;;;;37.58;26.55;;;;;;;;;;5062244;28;20052;-81
2024/01/26 05:46:12;;;;;;;40.38;27.60;;;;;;;;;;5062092;28;20151;-82
2024/01/26 05:48:38;;;;;;;38.75;27.00;;;;;;;;;;5061433;28;20040;-82
2024/01/26 05:51:04;;;;;;;38.08;26.33;;;;;;;;;;5059397;28;20410;-82
2024/01/26 05:53:30;;;;;;;34.72;25.73;;;;;;;;;;5062324;28;20052;-82
2024/01/26 05:55:57;;;;;;;35.38;25.50;;;;;;;;;;5061547;28;20052;-82
2024/01/26 05:58:23;;;;;;;37.55;25.65;;;;;;;;;;5060414;28;20064;-81
2024/01/26 06:00:49;;;;;;;37.45;24.58;;;;;;;;;;5062178;28;20045;-82
2024/01/26 06:03:15;;;;;;;38.20;25.15;;;;;;;;;;5062207;28;20045;-82
2024/01/26 06:05:41;;;;;;;30.98;22.80;;;;;;;;;;5060171;28;20052;-82
2024/01/26 06:08:07;;;;;;;32.78;24.02;;;;;;;;;;5062094;28;20075;-82
2024/01/26 06:10:33;;;;;;;32.10;24.08;;;;;;;;;;5062570;28;20045;-82
2024/01/26 06:12:59;;;;;;;30.83;22.73;;;;;;;;;;5061978;28;20065;-82
2024/01/26 06:15:25;;;;;;;30.48;22.17;;;;;;;;;;5063382;28;20056;-82
2024/01/26 06:17:51;;;;;;;31.83;22.60;;;;;;;;;;5063612;28;20037;-82
2024/01/26 06:20:17;;;;;;;32.63;21.88;;;;;;;;;;5061983;28;20409;-82
2024/01/26 06:22:43;;;;;;;28.50;21.50;;;;;;;;;;5062560;28;20044;-82
2024/01/26 06:25:09;;;;;;;31.65;21.90;;;;;;;;;;5058184;28;20072;-82
2024/01/26 06:27:37;;;;;;;30.08;21.88;;;;;;;;;;5057923;28;20037;-82
2024/01/26 06:30:06;;;;;;;29.17;21.42;;;;;;;;;;5056914;28;20041;-83
2024/01/26 06:32:32;;;;;;;29.55;20.55;;;;;;;;;;5060180;28;20041;-83
2024/01/26 06:34:58;;;;;;;29.73;20.98;;;;;;;;;;5058688;28;20128;-82
2024/01/26 06:37:26;;;;;;;30.25;20.50;;;;;;;;;;5059407;28;20040;-82
2024/01/26 06:39:53;;;;;;;28.42;20.30;;;;;;;;;;5057887;28;20047;-82
2024/01/26 06:42:25;;;;;;;29.30;20.27;;;;;;;;;;5057133;28;20064;-82
2024/01/26 06:44:52;;;;;;;24.25;17.35;;;;;;;;;;5058472;28;20585;-81
2024/01/26 06:47:19;;;;;;;21.63;17.02;;;;;;;;;;5059049;28;20496;-82
2024/01/26 06:49:45;;;;;;;24.85;18.50;;;;;;;;;;5059817;28;20098;-83
2024/01/26 06:52:11;;;;;;;24.95;17.83;;;;;;;;;;5063169;28;20044;-83
2024/01/26 06:54:40;;;;;;;24.23;16.77;;;;;;;;;;5061305;28;20048;-83
2024/01/26 06:57:06;;;;;;;22.65;17.15;;;;;;;;;;5060468;28;20458;-82
2024/01/26 06:59:37;;;;;;;22.75;16.70;;;;;;;;;;5058731;28;20053;-82
2024/01/26 07:02:03;;;;;;;26.42;16.27;;;;;;;;;;5058428;28;20036;-83
2024/01/26 07:04:29;;;;;;;29.08;15.85;;;;;;;;;;5060850;28;20037;-83
2024/01/26 07:06:55;;;;;;;25.73;15.75;;;;;;;;;;5062108;28;20044;-83
2024/01/26 07:09:21;;;;;;;25.05;15.55;;;;;;;;;;5061287;28;20041;-83
2024/01/26 07:11:47;;;;;;;23.67;15.18;;;;;;;;;;5058730;28;20037;-83
2024/01/26 07:14:14;;;;;;;19.92;14.70;;;;;;;;;;5061432;28;20458;-83
2024/01/26 07:16:40;;;;;;;17.70;13.80;;;;;;;;;;5062212;28;20053;-83
2024/01/26 07:19:06;;;;;;;17.52;12.73;;;;;;;;;;5041889;28;20056;-83
2024/01/26 07:21:32;;;;;;;19.42;13.43;;;;;;;;;;5058039;28;20041;-82
2024/01/26 07:23:58;;;;;;;18.48;12.80;;;;;;;;;;5060981;28;20045;-83
2024/01/26 07:26:25;;;;;;;17.02;12.45;;;;;;;;;;5061972;28;20037;-83
2024/01/26 07:28:51;;;;;;;18.13;13.27;;;;;;;;;;5064864;28;20041;-82
2024/01/26 07:31:17;;;;;;;18.92;12.40;;;;;;;;;;5062605;28;20072;-83
2024/01/26 07:33:43;;;;;;;20.02;13.25;;;;;;;;;;5060231;28;20091;-83
2024/01/26 07:36:10;;;;;;;19.15;12.73;;;;;;;;;;5057505;28;20446;-83
2024/01/26 07:38:36;;;;;;;16.55;12.40;;;;;;;;;;5058349;28;20102;-83
2024/01/26 07:41:02;;;;;;;18.35;11.93;;;;;;;;;;5063683;28;20041;-83
2024/01/26 07:43:28;;;;;;;16.55;11.02;;;;;;;;;;5063731;28;20045;-83
2024/01/26 07:45:54;;;;;;;16.13;11.68;;;;;;;;;;5064911;28;20045;-83
2024/01/26 07:48:20;;;;;;;14.55;11.85;;;;;;;;;;5069293;28;20051;-83
2024/01/26 07:50:46;;;;;;;15.07;11.25;;;;;;;;;;5064474;28;20045;-83
2024/01/26 07:53:12;;;;;;;14.20;10.85;;;;;;;;;;5064550;28;20053;-84
2024/01/26 07:55:38;;;;;;;16.92;11.15;;;;;;;;;;5062608;28;20056;-83
2024/01/26 07:58:05;;;;;;;15.50;10.98;;;;;;;;;;5062919;28;20113;-82
2024/01/26 08:00:31;;;;;;;19.80;11.90;;;;;;;;;;5060795;28;20053;-82
2024/01/26 08:02:57;;;;;;;12.02;9.50;;;;;;;;;;5045415;28;20099;-82
2024/01/26 08:05:23;;;;;;;19.38;10.15;;;;;;;;;;5046400;28;20041;-82
2024/01/26 08:07:49;;;;;;;15.40;10.02;;;;;;;;;;5047067;28;20071;-82
2024/01/26 08:10:15;;;;;;;12.55;9.85;;;;;;;;;;5052350;28;20048;-83
2024/01/26 08:12:41;;;;;;;14.38;10.10;;;;;;;;;;5063529;28;20045;-83
2024/01/26 08:15:07;;;;;;;13.00;10.45;;;;;;;;;;5060503;28;20056;-83
2024/01/26 08:17:34;;;;;;;13.75;10.43;;;;;;;;;;5054812;28;20513;-83
2024/01/26 08:20:03;;;;;;;12.13;9.63;;;;;;;;;;5066980;28;20056;-83
2024/01/26 08:22:30;;;;;;;15.20;10.63;;;;;;;;;;5065060;28;20112;-83
2024/01/26 08:25:00;;;;;;;14.68;9.90;;;;;;;;;;5066989;28;20053;-83
2024/01/26 08:27:26;;;;;;;14.75;10.30;;;;;;;;;;5068124;28;20107;-83
2024/01/26 08:29:52;;;;;;;12.23;9.13;;;;;;;;;;5066311;28;20037;-83
2024/01/26 08:32:19;;;;;;;14.55;8.82;;;;;;;;;;5065417;28;20143;-82
2024/01/26 08:34:45;;;;;;;12.85;9.05;;;;;;;;;;5065573;28;20219;-82
2024/01/26 08:37:11;;;;;;;13.85;9.23;;;;;;;;;;5065544;28;20045;-82
2024/01/26 08:39:37;;;;;;;14.13;9.02;;;;;;;;;;5059502;28;20103;-82
2024/01/26 08:42:04;;;;;;;11.55;8.02;;;;;;;;;;5069027;28;20045;-83
2024/01/26 08:44:30;;;;;;;11.80;8.38;;;;;;;;;;5054921;28;20053;-83
2024/01/26 08:46:56;;;;;;;11.50;8.00;;;;;;;;;;5069885;28;20043;-82
2024/01/26 08:49:23;;;;;;;11.07;7.80;;;;;;;;;;5057762;28;20049;-83
2024/01/26 08:51:51;;;;;;;12.23;7.35;;;;;;;;;;5060032;28;20044;-83
2024/01/26 08:54:17;;;;;;;11.68;7.60;;;;;;;;;;5066872;28;20047;-83
2024/01/26 08:56:43;;;;;;;10.98;7.82;;;;;;;;;;5060989;28;20041;-82
2024/01/26 08:59:09;;;;;;;12.02;8.55;;;;;;;;;;5067155;28;20060;-82
2024/01/26 09:01:36;;;;;;;11.30;8.23;;;;;;;;;;5064836;28;20111;-82
2024/01/26 09:04:05;;;;;;;12.68;8.93;;;;;;;;;;5047456;28;20148;-82
2024/01/26 09:06:40;;;;;;;9.95;7.78;;;;;;;;;;5048474;28;20041;-82
2024/01/26 09:09:06;;;;;;;10.43;7.90;;;;;;;;;;5067261;28;20140;-82
2024/01/26 09:11:32;;;;;;;12.50;7.93;;;;;;;;;;5062901;28;20056;-83
2024/01/26 09:13:59;;;;;;;10.55;7.60;;;;;;;;;;5049355;28;20522;-83
2024/01/26 09:16:25;;;;;;;12.35;8.45;;;;;;;;;;5064078;28;20045;-83
2024/01/26 09:18:51;;;;;;;12.77;8.75;;;;;;;;;;5071313;28;20052;-82
2024/01/26 09:21:18;;;;;;;11.07;8.32;;;;;;;;;;5062782;28;20042;-82
2024/01/26 09:23:44;;;;;;;9.52;7.15;;;;;;;;;;5047444;28;20079;-82
2024/01/26 09:26:10;;;;;;;11.00;8.05;;;;;;;;;;5054583;28;20052;-83
2024/01/26 09:28:36;;;;;;;11.88;7.75;;;;;;;;;;5061870;28;20062;-83
2024/01/26 09:31:03;;;;;;;13.13;7.82;;;;;;;;;;5059874;28;20056;-83
2024/01/26 09:33:29;;;;;;;10.52;7.65;;;;;;;;;;5056108;28;20463;-83
2024/01/26 09:35:56;;;;;;;11.32;8.43;;;;;;;;;;5067687;28;20045;-83
2024/01/26 09:38:22;;;;;;;12.32;8.05;;;;;;;;;;5066540;28;20048;-83
2024/01/26 09:40:48;;;;;;;13.43;7.25;;;;;;;;;;5065586;28;20041;-82
2024/01/26 09:43:15;;;;;;;8.55;3.75;;;;;;;;;;5066151;28;20146;-81
2024/01/26 09:45:41;;;;;;;8.32;2.08;;;;;;;;;;5061116;28;20045;-80
2024/01/26 09:48:09;;;;;;;4.15;1.08;;;;;;;;;;5068547;28;20048;-81
2024/01/26 09:50:35;;;;;;;2.60;0.85;;;;;;;;;;5068169;28;20114;-81
2024/01/26 09:53:03;;;;;;;4.80;0.80;;;;;;;;;;5068880;28;20049;-82
2024/01/26 09:55:29;;;;;;;4.75;0.88;;;;;;;;;;5067278;28;20037;-82
2024/01/26 09:57:56;;;;;;;5.78;1.00;;;;;;;;;;5065203;28;20045;-83
2024/01/26 10:00:22;;;;;;;4.43;0.85;;;;;;;;;;5064532;28;20053;-82
2024/01/26 10:02:49;;;;;;;4.47;1.00;;;;;;;;;;5066712;28;20063;-82
2024/01/26 10:05:18;;;;;;;4.25;0.98;;;;;;;;;;5067248;28;20064;-82
2024/01/26 10:07:45;;;;;;;6.50;1.00;;;;;;;;;;5066568;28;20056;-83
2024/01/26 10:10:12;;;;;;;4.95;0.98;;;;;;;;;;5066950;28;20513;-83
2024/01/26 10:12:38;;;;;;;3.95;0.70;;;;;;;;;;5066974;28;20098;-83
2024/01/26 10:15:05;;;;;;;3.83;0.88;;;;;;;;;;5067068;28;20040;-83
2024/01/26 10:17:31;;;;;;;7.65;1.42;;;;;;;;;;5061578;28;20052;-83
2024/01/26 10:20:14;;;;;;;7.68;1.20;;;;;;;;;;5067413;28;20036;-83
2024/01/26 10:22:41;;;;;;;7.90;1.50;;;;;;;;;;5067542;28;20037;-82
2024/01/26 10:25:08;;;;;;;8.68;1.38;;;;;;;;;;5067544;28;20047;-84
2024/01/26 10:27:34;;;;;;;15.55;1.80;;;;;;;;;;5064845;28;20449;-83
2024/01/26 10:30:00;;;;;;;9.55;1.80;;;;;;;;;;5043853;28;20049;-82
2024/01/26 10:32:27;;;;;;;10.70;1.70;;;;;;;;;;5046028;28;20049;-83
2024/01/26 10:34:57;;;;;;;11.13;1.92;;;;;;;;;;5066137;28;20033;-83
2024/01/26 10:37:26;;;;;;;13.13;2.03;;;;;;;;;;5065710;28;20120;-83
2024/01/26 10:39:54;;;;;;;10.00;1.83;;;;;;;;;;5056896;28;20068;-83
2024/01/26 10:42:20;;;;;;;12.60;1.75;;;;;;;;;;5056839;28;20486;-83
2024/01/26 10:44:48;;;;;;;14.02;2.05;;;;;;;;;;5064270;28;20127;-83
2024/01/26 10:47:15;;;;;;;17.33;2.30;;;;;;;;;;5058780;28;20098;-83
2024/01/26 10:49:44;;;;;;;15.05;2.22;;;;;;;;;;5058634;28;20044;-83
2024/01/26 10:52:10;;;;;;;18.70;2.25;;;;;;;;;;5053800;28;20055;-83
2024/01/26 10:54:37;;;;;;;15.73;2.85;;;;;;;;;;5063768;28;20045;-83
2024/01/26 10:57:03;;;;;;;13.15;2.22;;;;;;;;;;5060289;28;20056;-83
2024/01/26 10:59:29;;;;;;;14.10;2.28;;;;;;;;;;5064252;28;20111;-83
2024/01/26 11:01:56;;;;;;;14.52;2.75;;;;;;;;;;5068152;28;20210;-82
2024/01/26 11:04:22;;;;;;;16.08;2.30;;;;;;;;;;5083998;28;20041;-84
2024/01/26 11:06:48;;;;;;;16.38;2.50;;;;;;;;;;5062094;28;20045;-84
2024/01/26 11:09:16;;;;;;;14.52;2.60;;;;;;;;;;5076600;28;20052;-83
2024/01/26 11:11:42;;;;;;;15.88;2.40;;;;;;;;;;5069515;28;20045;-83
2024/01/26 11:14:11;;;;;;;18.40;2.88;;;;;;;;;;5062976;28;20096;-83
2024/01/26 11:16:47;;;;;;;15.52;2.55;;;;;;;;;;5063027;28;20045;-83
2024/01/26 11:19:23;;;;;;;16.50;2.30;;;;;;;;;;5060742;28;20048;-84
2024/01/26 11:21:49;;;;;;;18.73;3.40;;;;;;;;;;5062759;28;20048;-83
2024/01/26 11:24:19;;;;;;;19.23;2.95;;;;;;;;;;5063669;28;20059;-82
2024/01/26 11:27:01;;;;;;;15.18;2.97;;;;;;;;;;5062886;28;20063;-83
2024/01/26 11:29:37;;;;;;;19.17;2.83;;;;;;;;;;5062421;28;20045;-83
2024/01/26 11:32:19;;;;;;;22.80;3.28;;;;;;;;;;5062945;28;20127;-82
2024/01/26 11:34:58;;;;;;;15.68;2.67;;;;;;;;;;5061722;28;20049;-82
2024/01/26 11:37:26;;;;;;;14.57;2.85;;;;;;;;;;5054438;28;20060;-83
2024/01/26 11:39:53;;;;;;;21.10;2.85;;;;;;;;;;5043472;28;20048;-82
2024/01/26 11:42:19;;;;;;;16.25;2.70;;;;;;;;;;5042976;28;20091;-83
2024/01/26 11:44:51;;;;;;;21.52;3.35;;;;;;;;;;5051693;28;20049;-82
2024/01/26 11:47:17;;;;;;;15.55;2.33;;;;;;;;;;5062167;28;20074;-82
2024/01/26 11:49:43;;;;;;;18.65;2.63;;;;;;;;;;5080613;28;20379;-83
2024/01/26 11:52:09;;;;;;;17.88;2.55;;;;;;;;;;5065931;28;20041;-82
2024/01/26 11:54:36;;;;;;;18.17;2.58;;;;;;;;;;5066503;28;20044;-82
2024/01/26 11:57:02;;;;;;;16.27;2.75;;;;;;;;;;5051661;28;20042;-83
2024/01/26 11:59:31;;;;;;;17.05;2.80;;;;;;;;;;5045981;28;20064;-82
2024/01/26 12:01:57;;;;;;;21.33;3.25;;;;;;;;;;5045946;28;20063;-82
2024/01/26 12:04:26;;;;;;;16.38;2.90;;;;;;;;;;5054457;28;20037;-83
2024/01/26 12:06:52;;;;;;;14.77;2.45;;;;;;;;;;5065598;28;20263;-82
2024/01/26 12:09:19;;;;;;;15.75;2.70;;;;;;;;;;5065282;28;20048;-82
2024/01/26 12:11:45;;;;;;;23.75;3.00;;;;;;;;;;5065591;28;20045;-82
2024/01/26 12:14:11;;;;;;;14.48;2.45;;;;;;;;;;5072221;28;20499;-81
2024/01/26 12:16:39;;;;;;;12.77;2.25;;;;;;;;;;5047617;28;20387;-83
2024/01/26 12:19:06;;;;;;;12.63;2.15;;;;;;;;;;5053432;28;20049;-82
2024/01/26 12:21:32;;;;;;;13.82;2.80;;;;;;;;;;5067048;28;20048;-83
2024/01/26 12:23:58;;;;;;;15.20;2.42;;;;;;;;;;5067182;28;20120;-83
2024/01/26 12:26:25;;;;;;;14.05;2.45;;;;;;;;;;5066623;28;20040;-82
2024/01/26 12:28:51;;;;;;;17.58;2.53;;;;;;;;;;5067614;28;20041;-83
2024/01/26 12:31:18;;;;;;;17.83;2.97;;;;;;;;;;5051842;28;20053;-83
2024/01/26 12:33:46;;;;;;;15.07;2.53;;;;;;;;;;5046899;28;20050;-83
2024/01/26 12:36:13;;;;;;;18.42;2.88;;;;;;;;;;5047157;28;20444;-84
2024/01/26 12:38:39;;;;;;;17.88;3.10;;;;;;;;;;5064689;28;20080;-83
2024/01/26 12:41:05;;;;;;;21.92;3.45;;;;;;;;;;5067071;28;20156;-83
2024/01/26 12:43:32;;;;;;;21.70;3.92;;;;;;;;;;5060345;28;20044;-84
2024/01/26 12:45:58;;;;;;;29.98;5.10;;;;;;;;;;5051736;28;20128;-83
2024/01/26 12:48:24;;;;;;;22.30;3.33;;;;;;;;;;5061757;28;20505;-84
2024/01/26 12:50:51;;;;;;;21.23;3.10;;;;;;;;;;5065697;28;20110;-83
2024/01/26 12:53:18;;;;;;;24.27;3.60;;;;;;;;;;5062195;28;20084;-83
2024/01/26 12:55:44;;;;;;;20.45;3.70;;;;;;;;;;5045244;28;20163;-84
2024/01/26 12:58:10;;;;;;;21.15;3.20;;;;;;;;;;5058250;28;20045;-83
2024/01/26 13:00:36;;;;;;;18.15;3.05;;;;;;;;;;5065080;28;20057;-83
2024/01/26 13:03:03;;;;;;;22.75;3.20;;;;;;;;;;5065819;28;20045;-84
2024/01/26 13:05:29;;;;;;;18.17;3.60;;;;;;;;;;5066153;28;20049;-83
2024/01/26 13:07:55;;;;;;;19.10;2.88;;;;;;;;;;5064475;28;20040;-84
2024/01/26 13:10:22;;;;;;;17.30;3.38;;;;;;;;;;5064719;28;20051;-83
2024/01/26 13:12:48;;;;;;;15.77;2.63;;;;;;;;;;5063814;28;20040;-83
2024/01/26 13:15:14;;;;;;;13.57;2.00;;;;;;;;;;5063204;28;20052;-84
2024/01/26 13:17:40;;;;;;;14.15;2.13;;;;;;;;;;5065292;28;20153;-84
2024/01/26 13:20:09;;;;;;;13.10;2.20;;;;;;;;;;5064811;28;20052;-84
2024/01/26 13:22:35;;;;;;;16.92;2.45;;;;;;;;;;5062377;28;20045;-83
2024/01/26 13:25:01;;;;;;;16.98;1.98;;;;;;;;;;5064274;28;20055;-84
2024/01/26 13:27:27;;;;;;;13.93;2.80;;;;;;;;;;5063729;28;20059;-83
2024/01/26 13:29:53;;;;;;;13.60;2.33;;;;;;;;;;5063971;28;20075;-84
2024/01/26 13:32:19;;;;;;;17.27;3.20;;;;;;;;;;5063782;28;20453;-83
2024/01/26 13:34:45;;;;;;;15.98;2.55;;;;;;;;;;5064019;28;20080;-84
2024/01/26 13:37:11;;;;;;;15.20;2.20;;;;;;;;;;5064065;28;20103;-83
2024/01/26 13:39:37;;;;;;;18.42;2.63;;;;;;;;;;5063954;28;20041;-83
2024/01/26 13:42:04;;;;;;;16.35;2.53;;;;;;;;;;5063655;28;20049;-83
2024/01/26 13:44:30;;;;;;;18.45;2.85;;;;;;;;;;5063427;28;20060;-83
2024/01/26 13:46:56;;;;;;;18.92;2.40;;;;;;;;;;5064220;28;20040;-84
2024/01/26 13:49:22;;;;;;;16.75;2.97;;;;;;;;;;5079126;28;20037;-83
2024/01/26 13:51:48;;;;;;;20.98;2.67;;;;;;;;;;5064065;28;20116;-83
2024/01/26 13:54:15;;;;;;;18.70;2.80;;;;;;;;;;5063426;28;20045;-83
2024/01/26 13:56:41;;;;;;;19.08;2.97;;;;;;;;;;5063467;28;20059;-83
2024/01/26 13:59:07;;;;;;;17.00;2.42;;;;;;;;;;5064530;28;20063;-83
2024/01/26 14:01:34;;;;;;;13.18;2.33;;;;;;;;;;5059859;28;20067;-83
2024/01/26 14:04:00;;;;;;;14.43;2.20;;;;;;;;;;5062317;28;20105;-83
2024/01/26 14:06:26;;;;;;;13.75;2.20;;;;;;;;;;5063575;28;20051;-83
2024/01/26 14:08:52;;;;;;;16.52;2.53;;;;;;;;;;5079364;28;20048;-83
2024/01/26 14:11:19;;;;;;;14.27;2.08;;;;;;;;;;5055998;28;20045;-82
2024/01/26 14:13:46;;;;;;;15.18;2.40;;;;;;;;;;5061722;28;20056;-84
2024/01/26 14:16:12;;;;;;;13.20;1.70;;;;;;;;;;5063487;28;20055;-83
2024/01/26 14:18:38;;;;;;;10.88;1.77;;;;;;;;;;5057275;28;20041;-83
2024/01/26 14:21:04;;;;;;;10.82;1.90;;;;;;;;;;5062860;28;20467;-84